Time;durP1;ratioP1;P1;durP2;ratioP2;P2;SDS_P1;SDS_P2;PMS_P1;PMS_P2;Temp;Humidity;BMP_temperature;BMP_pressure;BME280_temperature;BME280_humidity;BME280_pressure;Samples;Min_cycle;Max_cycle;Signal;HPM_P1;HPM_P2
2022/08/29 00:01:45;;;;;;;;;2.00;2.00;;;;;20.11;45.47;100858.16;5118843;27;45314;-79
2022/08/29 00:04:10;;;;;;;;;2.50;2.50;;;;;20.24;45.60;100879.44;5137482;27;45444;-78
2022/08/29 00:06:36;;;;;;;;;2.75;2.75;;;;;20.07;45.65;100851.34;5118662;27;46939;-78
2022/08/29 00:09:02;;;;;;;;;2.50;2.00;;;;;20.19;45.63;100870.94;5137526;27;45413;-79
2022/08/29 00:11:27;;;;;;;;;0.00;0.00;;;;;20.24;45.54;100882.97;5118905;27;45407;-80
2022/08/29 00:13:52;;;;;;;;;1.50;1.50;;;;;20.21;45.23;100869.00;5137699;27;45481;-80
2022/08/29 00:16:18;;;;;;;;;1.75;1.75;;;;;20.16;45.71;100856.00;5137786;27;45519;-79
2022/08/29 00:18:44;;;;;;;;;3.00;3.00;;;;;20.23;45.36;100873.25;5137620;27;45397;-78
2022/08/29 00:21:12;;;;;;;;;1.00;1.00;;;;;20.18;45.32;100869.22;5118798;27;45472;-79
2022/08/29 00:23:38;;;;;;;;;2.00;2.00;;;;;20.13;45.57;100858.88;5138194;27;45337;-77
2022/08/29 00:26:03;;;;;;;;;3.25;3.25;;;;;20.19;45.45;100870.94;5118071;27;46236;-80
2022/08/29 00:28:29;;;;;;;;;1.00;1.00;;;;;20.16;45.29;100871.16;5118172;27;45445;-80
2022/08/29 00:30:54;;;;;;;;;0.00;0.00;;;;;20.09;45.48;100866.28;5138519;27;45076;-79
2022/08/29 00:33:20;;;;;;;;;1.00;1.00;;;;;19.99;45.52;100851.94;5120388;27;45176;-79
2022/08/29 00:35:46;;;;;;;;;1.75;1.75;;;;;20.11;45.75;100869.69;5137422;27;45458;-79
2022/08/29 00:38:14;;;;;;;;;2.00;2.00;;;;;20.13;45.70;100878.44;5136725;27;45447;-79
2022/08/29 00:40:43;;;;;;;;;1.00;1.00;;;;;20.12;45.53;100870.53;5138799;27;45470;-80
2022/08/29 00:43:09;;;;;;;;;2.25;2.25;;;;;20.08;46.28;100874.41;5121287;27;45463;-79
2022/08/29 00:45:37;;;;;;;;;1.25;1.25;;;;;20.02;45.63;100869.53;5121218;27;47419;-78
2022/08/29 00:48:11;;;;;;;;;1.00;1.00;;;;;20.01;45.63;100874.03;5141398;27;45427;-80
2022/08/29 00:50:42;;;;;;;;;1.00;1.00;;;;;19.98;45.92;100875.09;5142701;27;45372;-81
2022/08/29 00:53:10;;;;;;;;;1.50;1.50;;;;;19.95;46.22;100875.34;5142622;27;45415;-81
2022/08/29 00:55:38;;;;;;;;;1.75;1.75;;;;;19.85;46.25;100864.47;5142023;27;45865;-81
2022/08/29 00:58:10;;;;;;;;;2.25;2.25;;;;;19.88;45.97;100873.22;5123623;27;45590;-79
2022/08/29 01:00:37;;;;;;;;;1.25;1.25;;;;;19.75;46.58;100857.25;5142695;27;45235;-81
2022/08/29 01:03:06;;;;;;;;;2.25;2.25;;;;;19.72;46.21;100863.69;5121388;27;45375;-78
2022/08/29 01:05:32;;;;;;;;;1.75;1.75;;;;;19.87;46.58;100891.03;5121127;27;47433;-79
2022/08/29 01:07:58;;;;;;;;;1.50;1.50;;;;;19.86;46.28;100894.69;5140001;27;45306;-80
2022/08/29 01:13:10;;;;;;;;;0.00;0.00;;;;;19.84;46.56;100891.28;5140243;27;45197;-81
2022/08/29 01:15:39;;;;;;;;;2.25;2.25;;;;;19.73;46.39;100859.19;5139966;27;45342;-81
2022/08/29 01:18:06;;;;;;;;;1.00;1.00;;;;;19.79;46.62;100869.41;5140490;27;45399;-80
2022/08/29 01:21:00;;;;;;;;;2.25;2.25;;;;;19.81;46.30;100872.81;5140090;27;45310;-81
2022/08/29 01:23:28;;;;;;;;;1.00;1.00;;;;;19.80;46.45;100871.13;5140670;27;45257;-80
2022/08/29 01:25:54;;;;;;;;;2.00;2.00;;;;;19.74;46.48;100860.91;5139734;27;45756;-79
2022/08/29 01:28:44;;;;;;;;;2.00;2.00;;;;;19.71;46.52;100862.00;5139802;27;45188;-81
2022/08/29 01:31:14;;;;;;;;;1.00;1.00;;;;;19.73;46.83;100856.53;5139643;27;45312;-80
2022/08/29 01:33:48;;;;;;;;;0.75;0.75;;;;;19.70;46.27;100858.47;5139923;27;45541;-80
2022/08/29 01:36:19;;;;;;;;;1.00;1.00;;;;;19.59;46.60;100850.41;5139391;27;45409;-79
2022/08/29 01:38:46;;;;;;;;;1.00;1.00;;;;;19.63;46.80;100859.88;5120066;27;45509;-79
2022/08/29 01:41:11;;;;;;;;;2.00;2.00;;;;;19.58;46.95;100858.50;5139072;27;45251;-79
2022/08/29 01:43:40;;;;;;;;;0.25;0.25;;;;;19.65;46.47;100865.13;5139280;27;45164;-81
2022/08/29 01:46:06;;;;;;;;;1.25;1.25;;;;;19.60;47.04;100870.78;5139881;27;45578;-80
2022/08/29 01:48:34;;;;;;;;;2.00;2.00;;;;;19.52;46.96;100854.50;5143948;27;45330;-80
2022/08/29 01:50:59;;;;;;;;;1.00;1.00;;;;;19.48;46.76;100847.69;5143596;27;45539;-79
2022/08/29 01:53:25;;;;;;;;;2.50;2.50;;;;;19.51;46.91;100850.13;5142792;27;45370;-78
2022/08/29 01:55:50;;;;;;;;;2.25;2.25;;;;;19.41;47.22;100839.25;5141415;27;45475;-80
2022/08/29 01:58:15;;;;;;;;;2.00;2.00;;;;;19.50;47.15;100861.75;5121253;27;45339;-78
2022/08/29 02:00:41;;;;;;;;;2.50;2.50;;;;;19.48;46.85;100858.34;5140046;27;45236;-79
2022/08/29 02:03:06;;;;;;;;;2.00;2.00;;;;;19.47;47.04;100853.97;5139435;27;45637;-77
2022/08/29 02:05:32;;;;;;;;;1.25;1.25;;;;;19.37;47.24;100838.66;5139382;27;46362;-79
2022/08/29 02:07:57;;;;;;;;;1.25;1.25;;;;;19.43;47.37;100858.69;5139209;27;45273;-77
2022/08/29 02:10:23;;;;;;;;;3.00;3.00;;;;;19.42;47.28;100860.50;5138634;27;45241;-78
2022/08/29 02:12:49;;;;;;;;;1.25;1.25;;;;;19.39;47.47;100862.53;5121362;27;45221;-79
2022/08/29 02:15:17;;;;;;;;;3.00;3.00;;;;;19.26;47.11;100842.09;5138424;27;45450;-77
2022/08/29 02:17:43;;;;;;;;;2.00;2.00;;;;;19.34;47.03;100864.69;5139958;27;45618;-78
2022/08/29 02:20:09;;;;;;;;;0.50;0.50;;;;;19.30;47.60;100858.75;5145497;27;45259;-79
2022/08/29 02:22:36;;;;;;;;;3.00;3.00;;;;;19.20;47.59;100847.03;5150523;27;44841;-78
2022/08/29 02:25:40;;;;;;;;;1.25;1.25;;;;;19.24;47.80;100853.84;5143905;27;45754;-79
2022/08/29 02:27:51;;;;;;;;;2.00;2.00;;;;;19.21;47.63;100860.25;5135739;27;45550;-78
2022/08/29 02:30:17;;;;;;;;;1.75;1.75;;;;;19.15;48.01;100855.34;5118401;27;45429;-79
2022/08/29 02:32:43;;;;;;;;;1.75;1.75;;;;;19.07;47.80;100855.91;5138612;27;45531;-78
2022/08/29 02:35:08;;;;;;;;;1.00;1.00;;;;;19.04;47.74;100850.78;5138346;27;46204;-77
2022/08/29 02:37:33;;;;;;;;;3.00;3.00;;;;;19.08;48.23;100854.94;5137739;27;45365;-77
2022/08/29 02:39:59;;;;;;;;;1.75;1.75;;;;;19.04;47.78;100849.94;5120073;27;45317;-77
2022/08/29 02:42:24;;;;;;;;;8.00;8.00;;;;;18.98;47.99;100853.91;5138897;27;45415;-78
2022/08/29 02:44:49;;;;;;;;;1.75;1.75;;;;;18.95;48.41;100849.63;5138068;27;45599;-77
2022/08/29 02:47:15;;;;;;;;;2.00;2.00;;;;;18.92;48.17;100846.31;5138325;27;45334;-78
2022/08/29 02:49:40;;;;;;;;;1.00;1.00;;;;;18.90;48.20;100850.91;5138290;27;45448;-77
2022/08/29 02:52:07;;;;;;;;;0.25;0.25;;;;;18.90;48.26;100854.44;5138389;27;45469;-79
2022/08/29 02:54:33;;;;;;;;;2.00;2.00;;;;;18.87;48.46;100853.78;5137412;27;45390;-79
2022/08/29 02:56:59;;;;;;;;;3.00;3.00;;;;;18.86;48.78;100858.28;5138694;27;45237;-77
2022/08/29 02:59:24;;;;;;;;;2.00;2.00;;;;;18.83;48.73;100850.50;5119848;27;45343;-79
2022/08/29 03:01:49;;;;;;;;;2.00;2.00;;;;;18.77;48.74;100841.09;5137603;27;45224;-77
2022/08/29 03:04:15;;;;;;;;;2.00;2.00;;;;;18.82;48.88;100852.28;5136796;27;45533;-79
2022/08/29 03:06:40;;;;;;;;;1.00;1.00;;;;;18.82;48.78;100846.97;5137602;27;45325;-78
2022/08/29 03:09:05;;;;;;;;;3.00;3.00;;;;;18.75;48.82;100835.03;5119257;27;45436;-78
2022/08/29 03:11:31;;;;;;;;;2.00;2.00;;;;;18.80;48.55;100851.56;5138263;27;45476;-79
2022/08/29 03:13:56;;;;;;;;;2.25;2.25;;;;;18.79;48.83;100843.69;5118772;27;46520;-78
2022/08/29 03:16:22;;;;;;;;;3.00;3.00;;;;;18.78;48.99;100842.81;5137655;27;45456;-79
2022/08/29 03:18:47;;;;;;;;;2.00;2.00;;;;;18.79;48.95;100849.00;5137631;27;45370;-79
2022/08/29 03:21:19;;;;;;;;;2.25;2.25;;;;;18.76;49.13;100852.72;5137795;27;45491;-79
2022/08/29 03:23:45;;;;;;;;;2.00;2.00;;;;;18.75;49.25;100850.19;5118191;27;47931;-77
2022/08/29 03:26:10;;;;;;;;;2.50;2.50;;;;;18.71;49.30;100836.22;5137049;27;45315;-77
2022/08/29 03:28:36;;;;;;;;;2.00;2.00;;;;;18.59;49.31;100826.44;5137537;27;45301;-77
2022/08/29 03:31:01;;;;;;;;;2.00;2.00;;;;;18.62;49.02;100831.53;5137745;27;45306;-78
2022/08/29 03:33:26;;;;;;;;;1.25;1.25;;;;;18.71;49.37;100849.53;5118517;27;46266;-78
2022/08/29 03:35:52;;;;;;;;;1.25;1.25;;;;;18.67;49.40;100840.94;5137073;27;45316;-78
2022/08/29 03:38:17;;;;;;;;;2.50;2.50;;;;;18.59;49.45;100829.09;5137937;27;45502;-77
2022/08/29 03:40:42;;;;;;;;;2.75;2.75;;;;;18.49;49.60;100821.75;5137178;27;45247;-78
2022/08/29 03:43:09;;;;;;;;;1.75;1.75;;;;;18.57;49.54;100836.34;5136823;27;45378;-78
2022/08/29 03:45:34;;;;;;;;;0.00;0.00;;;;;18.55;49.85;100836.44;5140365;27;45277;-78
2022/08/29 03:48:00;;;;;;;;;2.00;2.00;;;;;18.42;49.71;100816.94;5138186;27;45271;-78
2022/08/29 03:50:25;;;;;;;;;2.00;2.00;;;;;18.49;49.62;100832.41;5138835;27;45332;-77
2022/08/29 03:52:50;;;;;;;;;2.00;2.00;;;;;18.43;49.88;100830.16;5138337;27;46270;-77
2022/08/29 03:55:16;;;;;;;;;1.50;1.50;;;;;18.40;49.89;100822.38;5139029;27;45173;-78
2022/08/29 03:57:43;;;;;;;;;1.00;1.00;;;;;18.39;50.30;100823.34;5138554;27;45347;-79
2022/08/29 04:00:14;;;;;;;;;2.00;2.00;;;;;18.39;49.98;100834.84;5138559;27;45355;-77
2022/08/29 04:02:40;;;;;;;;;1.75;1.75;;;;;18.36;49.89;100834.22;5118380;27;47419;-79
2022/08/29 04:05:08;;;;;;;;;2.00;1.50;;;;;18.30;50.26;100838.13;5137709;27;45351;-78
2022/08/29 04:07:43;;;;;;;;;3.00;3.00;;;;;18.33;50.30;100842.41;5120112;27;45414;-78
2022/08/29 04:10:11;;;;;;;;;2.00;2.00;;;;;18.32;50.38;100846.88;5140157;27;45489;-78
2022/08/29 04:12:37;;;;;;;;;2.50;2.50;;;;;18.29;50.47;100838.25;5139665;27;45321;-79
2022/08/29 04:15:04;;;;;;;;;3.00;3.00;;;;;18.31;50.43;100849.66;5138131;27;45415;-78
2022/08/29 04:17:30;;;;;;;;;3.25;3.25;;;;;18.25;50.29;100841.13;5121572;27;45308;-79
2022/08/29 04:19:55;;;;;;;;;3.00;3.00;;;;;18.23;50.44;100839.53;5140195;27;45424;-79
2022/08/29 04:22:21;;;;;;;;;3.00;3.00;;;;;18.25;50.51;100840.25;5140177;27;46800;-78
2022/08/29 04:24:46;;;;;;;;;2.75;2.75;;;;;18.24;50.19;100833.25;5121655;27;45376;-78
2022/08/29 04:27:11;;;;;;;;;3.00;3.00;;;;;18.24;50.52;100838.56;5140793;27;45246;-77
2022/08/29 04:29:37;;;;;;;;;3.00;3.00;;;;;18.20;50.58;100837.94;5140340;27;45293;-79
2022/08/29 04:32:03;;;;;;;;;3.00;3.00;;;;;18.09;50.74;100833.34;5140781;27;46179;-78
2022/08/29 04:34:28;;;;;;;;;3.00;3.00;;;;;18.09;50.56;100827.16;5140549;27;45153;-78
2022/08/29 04:36:53;;;;;;;;;3.25;3.25;;;;;18.13;50.78;100841.97;5140496;27;45252;-79
2022/08/29 04:39:19;;;;;;;;;3.00;3.00;;;;;18.14;50.77;100843.69;5140806;27;45559;-77
2022/08/29 04:41:44;;;;;;;;;2.50;2.50;;;;;18.13;51.05;100841.97;5122470;27;47048;-79
2022/08/29 04:44:11;;;;;;;;;3.75;3.75;;;;;18.03;50.99;100832.91;5141225;27;45310;-78
2022/08/29 04:46:37;;;;;;;;;4.00;4.00;;;;;18.07;51.07;100843.22;5122524;27;45384;-79
2022/08/29 04:49:03;;;;;;;;;3.00;3.00;;;;;18.03;50.96;100846.22;5141302;27;45312;-78
2022/08/29 04:51:29;;;;;;;;;3.00;3.00;;;;;17.93;51.13;100840.63;5141062;27;45396;-79
2022/08/29 04:53:55;;;;;;;;;3.00;3.00;;;;;17.94;51.31;100837.84;5140725;27;45454;-81
2022/08/29 04:56:21;;;;;;;;;3.00;3.00;;;;;18.01;51.24;100856.97;5141192;27;45344;-79
2022/08/29 04:58:47;;;;;;;;;3.25;3.25;;;;;17.86;51.43;100834.84;5141123;27;45568;-80
2022/08/29 05:01:15;;;;;;;;;4.75;4.75;;;;;17.95;51.31;100857.34;5121836;27;47282;-79
2022/08/29 05:03:41;;;;;;;;;3.00;3.00;;;;;17.94;51.58;100860.94;5121590;27;45700;-79
2022/08/29 05:06:10;;;;;;;;;3.00;3.00;;;;;17.84;51.48;100850.06;5140321;27;45325;-78
2022/08/29 05:08:38;;;;;;;;;5.00;5.00;;;;;17.92;51.54;100863.69;5121535;27;45288;-81
2022/08/29 05:11:08;;;;;;;;;3.25;3.25;;;;;17.86;51.39;100858.78;5140040;27;45289;-80
2022/08/29 05:13:33;;;;;;;;;4.75;4.75;;;;;17.90;51.58;100878.09;5140203;27;45335;-79
2022/08/29 05:15:59;;;;;;;;;4.00;4.00;;;;;17.89;51.54;100879.03;5139829;27;45482;-79
2022/08/29 05:18:25;;;;;;;;;3.75;3.75;;;;;17.89;51.67;100890.53;5140145;27;45524;-79
2022/08/29 05:20:50;;;;;;;;;3.25;3.25;;;;;17.90;51.78;100878.91;5139681;27;46455;-78
2022/08/29 05:23:17;;;;;;;;;4.00;4.00;;;;;17.83;51.32;100869.63;5139963;27;45348;-78
2022/08/29 05:25:43;;;;;;;;;4.50;4.50;;;;;17.90;51.93;100873.59;5121103;27;45235;-79
2022/08/29 05:28:10;;;;;;;;;4.25;4.25;;;;;17.90;51.67;100876.25;5140483;27;45274;-78
2022/08/29 05:30:39;;;;;;;;;4.25;4.25;;;;;17.92;51.47;100878.84;5140297;27;46624;-79
2022/08/29 05:33:06;;;;;;;;;3.25;3.25;;;;;17.82;51.76;100867.94;5140785;27;45411;-79
2022/08/29 05:35:33;;;;;;;;;3.75;3.75;;;;;17.94;51.33;100887.56;5140007;27;45222;-78
2022/08/29 05:37:59;;;;;;;;;3.25;2.50;;;;;17.95;51.48;100887.44;5141029;27;45329;-77
2022/08/29 05:40:25;;;;;;;;;3.25;3.25;;;;;17.99;51.59;100893.44;5140176;27;46302;-79
2022/08/29 05:42:50;;;;;;;;;2.75;2.75;;;;;17.95;51.53;100884.78;5139683;27;45749;-79
2022/08/29 05:45:16;;;;;;;;;3.50;3.50;;;;;17.98;51.56;100881.09;5140699;27;45379;-79
2022/08/29 05:47:41;;;;;;;;;4.75;4.75;;;;;18.05;51.97;100900.22;5141339;27;45476;-80
2022/08/29 05:50:07;;;;;;;;;3.50;3.50;;;;;18.03;51.39;100897.63;5141389;27;45558;-80
2022/08/29 05:52:33;;;;;;;;;3.50;3.50;;;;;18.15;51.32;100908.41;5142316;27;45354;-79
2022/08/29 05:55:00;;;;;;;;;11.25;11.25;;;;;18.12;51.30;100893.50;5141453;27;45379;-76
2022/08/29 05:57:26;;;;;;;;;4.00;4.00;;;;;18.24;51.52;100902.47;5152640;27;45312;-80
2022/08/29 05:59:53;;;;;;;;;4.00;4.00;;;;;18.24;51.08;100890.03;5148697;27;45311;-79
2022/08/29 06:02:20;;;;;;;;;3.00;3.00;;;;;18.40;50.88;100907.63;5140957;27;45244;-80
2022/08/29 06:04:46;;;;;;;;;2.75;2.75;;;;;18.42;50.58;100903.03;5121692;27;45305;-79
2022/08/29 06:07:12;;;;;;;;;4.50;4.50;;;;;18.48;50.41;100907.94;5121924;27;45470;-80
2022/08/29 06:09:39;;;;;;;;;4.25;4.25;;;;;18.47;50.52;100897.38;5139349;27;45466;-76
2022/08/29 06:12:05;;;;;;;;;5.50;5.50;;;;;18.56;50.61;100912.75;5139071;27;45350;-77
2022/08/29 06:14:31;;;;;;;;;4.50;4.50;;;;;18.60;50.66;100918.72;5139302;27;45423;-81
2022/08/29 06:16:59;;;;;;;;;3.75;3.75;;;;;18.62;50.29;100911.47;5140671;27;45567;-78
2022/08/29 06:19:25;;;;;;;;;4.00;4.00;;;;;18.66;50.25;100912.94;5141011;27;45415;-80
2022/08/29 06:21:53;;;;;;;;;2.75;2.75;;;;;18.63;50.48;100900.72;5140158;27;45411;-82
2022/08/29 06:24:19;;;;;;;;;5.50;5.50;;;;;18.71;50.35;100920.66;5140627;27;45338;-82
2022/08/29 06:26:45;;;;;;;;;4.00;4.00;;;;;18.77;49.98;100920.22;5139679;27;45441;-78
2022/08/29 06:29:13;;;;;;;;;4.00;4.00;;;;;18.76;50.10;100929.16;5138498;27;45399;-76
2022/08/29 06:31:39;;;;;;;;;4.00;4.00;;;;;18.74;50.19;100923.94;5137771;27;45360;-76
2022/08/29 06:34:05;;;;;;;;;3.25;3.25;;;;;18.75;50.16;100935.47;5138645;27;45379;-78
2022/08/29 06:36:32;;;;;;;;;4.25;4.00;;;;;18.70;50.28;100925.09;5140426;27;45148;-79
2022/08/29 06:38:59;;;;;;;;;3.00;3.00;;;;;18.73;50.00;100935.56;5139158;27;46229;-80
2022/08/29 06:41:25;;;;;;;;;4.50;4.25;;;;;18.75;49.84;100930.13;5142651;27;45382;-81
2022/08/29 06:43:53;;;;;;;;;5.00;5.00;;;;;18.80;50.28;100933.31;5144032;27;45525;-82
2022/08/29 06:46:24;;;;;;;;;5.00;5.00;;;;;18.74;49.96;100910.59;5145277;27;45264;-78
2022/08/29 06:48:50;;;;;;;;;3.00;3.00;;;;;18.86;49.99;100934.69;5139190;27;45679;-76
2022/08/29 06:51:15;;;;;;;;;6.00;6.00;;;;;18.78;49.83;100922.75;5126455;27;45421;-74
2022/08/29 06:53:41;;;;;;;;;4.00;4.00;;;;;18.80;49.78;100922.66;5139334;27;45317;-79
2022/08/29 06:56:07;;;;;;;;;6.25;5.75;;;;;18.83;49.95;100927.78;5129651;27;45636;-74
2022/08/29 06:58:33;;;;;;;;;1.75;1.75;;;;;18.83;50.09;100920.63;5104304;27;47174;-76
2022/08/29 07:01:05;;;;;;;;;6.00;6.00;;;;;18.87;50.08;100923.06;5123342;27;45404;-77
2022/08/29 07:03:30;;;;;;;;;2.25;2.25;;;;;18.86;49.77;100924.91;5130936;27;45381;-78
2022/08/29 07:05:55;;;;;;;;;9.25;9.00;;;;;18.89;49.65;100926.47;5130408;27;45544;-74
2022/08/29 07:08:22;;;;;;;;;5.00;5.00;;;;;18.93;49.71;100939.50;5118719;27;46852;-80
2022/08/29 07:10:47;;;;;;;;;4.50;4.50;;;;;18.96;49.80;100938.41;5139557;27;45200;-78
2022/08/29 07:13:13;;;;;;;;;4.75;4.75;;;;;18.97;49.65;100942.81;5141233;27;45332;-83
2022/08/29 07:15:39;;;;;;;;;2.75;2.75;;;;;18.98;49.21;100941.88;5135892;27;45515;-76
2022/08/29 07:18:04;;;;;;;;;4.25;4.25;;;;;18.98;49.62;100933.88;5137300;27;45336;-74
2022/08/29 07:20:29;;;;;;;;;3.00;3.00;;;;;18.89;49.48;100926.47;5136814;27;45399;-83
2022/08/29 07:22:55;;;;;;;;;5.00;5.00;;;;;18.97;49.59;100925.03;5129917;27;45292;-79
2022/08/29 07:25:21;;;;;;;;;6.25;6.00;;;;;19.06;49.57;100934.19;5118670;27;45581;-78
2022/08/29 07:27:47;;;;;;;;;5.25;5.25;;;;;19.06;49.26;100915.50;5102786;27;46717;-80
2022/08/29 07:30:15;;;;;;;;;2.00;2.00;;;;;19.17;49.23;100925.44;5117683;27;45337;-80
2022/08/29 07:32:44;;;;;;;;;3.50;3.50;;;;;19.20;49.38;100921.72;5097350;27;45371;-81
2022/08/29 07:35:14;;;;;;;;;5.50;5.50;;;;;19.30;48.80;100928.09;5116976;27;45597;-80
2022/08/29 07:37:40;;;;;;;;;2.50;2.50;;;;;19.38;49.14;100928.38;5116765;27;45485;-80
2022/08/29 07:40:09;;;;;;;;;6.00;5.50;;;;;19.46;48.65;100926.97;5097369;27;45709;-81
2022/08/29 07:42:36;;;;;;;;;3.50;3.50;;;;;19.42;48.28;100921.88;5098935;27;45262;-80
2022/08/29 07:45:07;;;;;;;;;4.75;4.75;;;;;19.45;48.67;100915.44;5118514;27;45483;-79
2022/08/29 07:47:33;;;;;;;;;4.75;4.75;;;;;19.57;48.10;100929.72;5117779;27;46194;-79
2022/08/29 07:50:01;;;;;;;;;5.00;5.00;;;;;19.61;48.23;100928.53;5100873;27;45774;-81
2022/08/29 07:52:29;;;;;;;;;4.75;4.75;;;;;19.67;48.49;100936.06;5103432;27;45539;-80
2022/08/29 07:54:55;;;;;;;;;3.00;3.00;;;;;19.66;48.28;100917.53;5103616;27;45347;-79
2022/08/29 07:57:21;;;;;;;;;4.00;4.00;;;;;19.71;48.33;100921.53;5102322;27;47183;-80
2022/08/29 07:59:47;;;;;;;;;3.50;3.50;;;;;19.89;47.94;100936.31;5102955;27;45734;-81
2022/08/29 08:02:12;;;;;;;;;3.75;3.75;;;;;19.90;47.57;100930.06;5120849;27;45261;-78
2022/08/29 08:04:40;;;;;;;;;4.00;4.00;;;;;20.15;47.81;100945.09;5120655;27;45334;-80
2022/08/29 08:07:05;;;;;;;;;3.00;3.00;;;;;20.26;47.09;100938.94;5120266;27;45356;-81
2022/08/29 08:09:30;;;;;;;;;3.50;3.50;;;;;20.39;47.35;100938.88;5120697;27;45362;-80
2022/08/29 08:11:56;;;;;;;;;2.75;2.75;;;;;20.54;47.15;100935.00;5121199;27;45176;-80
2022/08/29 08:14:21;;;;;;;;;4.00;4.00;;;;;20.64;46.59;100937.81;5103121;27;45397;-80
2022/08/29 08:16:47;;;;;;;;;9.75;9.75;;;;;20.65;46.75;100922.63;5102806;27;45924;-82
2022/08/29 08:19:13;;;;;;;;;3.00;3.00;;;;;20.70;46.49;100915.13;5120897;27;45355;-81
2022/08/29 08:21:39;;;;;;;;;4.25;4.25;;;;;20.79;45.94;100916.25;5121930;27;45415;-80
2022/08/29 08:24:05;;;;;;;;;7.00;7.00;;;;;20.93;46.54;100932.06;5121255;27;45347;-81
2022/08/29 08:26:32;;;;;;;;;6.00;6.00;;;;;20.94;46.52;100908.84;5102085;27;48266;-79
2022/08/29 08:28:58;;;;;;;;;6.50;6.50;;;;;21.05;45.91;100911.50;5125044;27;45235;-80
2022/08/29 08:31:25;;;;;;;;;3.75;3.75;;;;;21.17;45.51;100921.22;5130366;27;45219;-81
2022/08/29 08:33:51;;;;;;;;;4.75;4.75;;;;;21.05;45.39;100895.47;5132975;27;45223;-81
2022/08/29 08:36:19;;;;;;;;;4.50;3.75;;;;;21.31;45.79;100928.16;5120933;27;45292;-79
2022/08/29 08:38:44;;;;;;;;;5.00;4.25;;;;;21.38;45.28;100922.31;5104486;27;45328;-80
2022/08/29 08:41:31;;;;;;;;;3.75;3.75;;;;;21.47;45.82;100928.75;5121778;27;45407;-79
2022/08/29 08:44:23;;;;;;;;;3.50;3.50;;;;;21.60;44.73;100921.44;5102052;27;45209;-79
2022/08/29 08:46:58;;;;;;;;;4.25;4.25;;;;;21.66;45.14;100931.66;5120938;27;45395;-80
2022/08/29 08:49:57;;;;;;;;;3.25;3.25;;;;;21.68;44.79;100929.72;5120545;27;45329;-79
2022/08/29 08:53:04;;;;;;;;;6.00;6.00;;;;;21.77;44.58;100929.94;5097050;27;45284;-78
2022/08/29 08:55:42;;;;;;;;;5.00;5.00;;;;;21.73;44.73;100915.94;5080023;27;45265;-78
2022/08/29 08:58:35;;;;;;;;;13.25;13.25;;;;;21.93;44.70;100922.31;5132911;27;45368;-79
2022/08/29 09:01:18;;;;;;;;;8.00;8.00;;;;;22.10;44.26;100937.00;5112512;27;45413;-80
2022/08/29 09:04:16;;;;;;;;;6.50;6.50;;;;;21.92;43.99;100904.56;5106707;27;45252;-80
2022/08/29 09:07:21;;;;;;;;;7.00;6.00;;;;;22.18;44.37;100939.88;5121077;27;45400;-78
2022/08/29 09:10:24;;;;;;;;;6.75;6.75;;;;;22.26;43.78;100939.22;5119623;27;46476;-80
2022/08/29 09:13:11;;;;;;;;;5.00;5.00;;;;;22.33;44.03;100936.88;5100947;27;45330;-79
2022/08/29 09:15:46;;;;;;;;;10.25;10.25;;;;;22.37;44.00;100929.44;5119269;27;45341;-80
2022/08/29 09:18:28;;;;;;;;;9.50;9.50;;;;;22.45;43.49;100930.50;5101996;27;45289;-80
2022/08/29 09:20:53;;;;;;;;;5.25;5.25;;;;;22.59;43.55;100937.38;5119853;27;45233;-79
2022/08/29 09:23:38;;;;;;;;;5.00;5.00;;;;;22.65;43.09;100922.59;5120599;27;45240;-79
2022/08/29 09:26:04;;;;;;;;;4.25;4.25;;;;;22.76;43.01;100933.22;5101763;27;45261;-78
2022/08/29 09:28:30;;;;;;;;;7.00;7.00;;;;;22.87;43.45;100929.63;5101884;27;45651;-78
2022/08/29 09:31:23;;;;;;;;;5.00;5.00;;;;;23.03;43.11;100936.31;5120296;27;45817;-80
2022/08/29 09:33:57;;;;;;;;;4.00;4.00;;;;;23.10;42.82;100934.81;5120051;27;45204;-80
2022/08/29 09:36:35;;;;;;;;;6.50;6.00;;;;;23.13;43.28;100926.47;5119316;27;45396;-80
2022/08/29 09:39:27;;;;;;;;;6.25;6.25;;;;;23.24;42.85;100944.34;5119716;27;45500;-78
2022/08/29 09:41:56;;;;;;;;;4.00;4.00;;;;;23.27;42.76;100940.53;5119416;27;46208;-78
2022/08/29 09:44:31;;;;;;;;;8.25;8.25;;;;;23.39;42.14;100933.25;5101096;27;45415;-79
2022/08/29 09:47:19;;;;;;;;;5.00;5.00;;;;;23.44;42.33;100929.16;5121204;27;45438;-79
2022/08/29 09:50:04;;;;;;;;;4.75;4.75;;;;;23.58;42.16;100929.75;5100819;27;45491;-78
2022/08/29 09:52:29;;;;;;;;;13.50;13.50;;;;;23.66;42.32;100926.38;5119355;27;45615;-79
2022/08/29 09:54:55;;;;;;;;;5.00;5.00;;;;;23.76;41.58;100924.53;5119217;27;45453;-79
2022/08/29 09:57:24;;;;;;;;;5.75;5.00;;;;;23.87;41.74;100923.56;5119898;27;45334;-79
2022/08/29 10:00:12;;;;;;;;;3.25;3.25;;;;;23.99;41.20;100918.94;5121417;27;45209;-81
2022/08/29 10:02:53;;;;;;;;;4.50;4.50;;;;;24.00;41.25;100907.22;5119588;27;45679;-78
2022/08/29 10:05:43;;;;;;;;;7.75;7.75;;;;;24.20;41.25;100924.16;5119278;27;45282;-80
2022/08/29 10:08:53;;;;;;;;;12.00;12.00;;;;;24.24;41.15;100920.19;5121669;27;44751;-80
2022/08/29 10:11:25;;;;;;;;;30.00;29.00;;;;;24.29;40.82;100925.97;5082945;27;45403;-81
2022/08/29 10:13:59;;;;;;;;;6.75;6.75;;;;;24.29;41.27;100901.78;5123302;27;45745;-79
2022/08/29 10:16:53;;;;;;;;;19.75;19.75;;;;;24.54;41.18;100920.16;5102680;27;45442;-78
2022/08/29 10:19:26;;;;;;;;;9.00;9.00;;;;;24.61;40.33;100903.31;5120512;27;45301;-79
2022/08/29 10:22:07;;;;;;;;;6.25;6.25;;;;;24.72;40.48;100910.31;5122803;27;45452;-79
2022/08/29 10:24:45;;;;;;;;;6.25;6.25;;;;;24.80;40.72;100913.16;5127273;27;45258;-77
2022/08/29 10:27:16;;;;;;;;;6.00;6.00;;;;;24.90;40.38;100907.75;5126522;27;45153;-77
2022/08/29 10:30:06;;;;;;;;;8.75;8.75;;;;;24.97;40.10;100910.72;5123893;27;45370;-80
2022/08/29 10:32:54;;;;;;;;;6.75;6.75;;;;;25.05;39.80;100905.44;5120949;27;45282;-80
2022/08/29 10:35:53;;;;;;;;;6.00;6.00;;;;;25.12;39.85;100897.59;5100974;27;46723;-78
2022/08/29 10:38:26;;;;;;;;;7.25;7.25;;;;;25.20;39.43;100910.31;5100313;27;45660;-79
2022/08/29 10:41:13;;;;;;;;;23.00;23.00;;;;;25.13;39.64;100910.06;5119433;27;45438;-80
2022/08/29 10:44:16;;;;;;;;;8.00;8.00;;;;;25.17;39.83;100902.53;5119436;27;45452;-80
2022/08/29 10:46:50;;;;;;;;;7.00;7.00;;;;;25.26;39.78;100906.16;5118431;27;45328;-81
2022/08/29 10:49:16;;;;;;;;;6.00;6.00;;;;;25.36;39.73;100906.94;5117042;27;45784;-79
2022/08/29 10:52:00;;;;;;;;;6.25;6.25;;;;;25.39;39.44;100903.97;5100627;27;45221;-78
2022/08/29 10:54:38;;;;;;;;;7.00;7.00;;;;;25.45;39.20;100897.13;5120566;27;45317;-78
2022/08/29 10:57:07;;;;;;;;;8.25;8.25;;;;;25.52;39.25;100893.72;5122016;27;46218;-79
2022/08/29 10:59:58;;;;;;;;;16.75;16.75;;;;;25.52;39.41;100888.34;5121032;27;45455;-78
2022/08/29 11:02:42;;;;;;;;;7.25;7.25;;;;;25.50;38.89;100894.88;5123373;27;45190;-79
2022/08/29 11:05:33;;;;;;;;;10.00;10.00;;;;;25.50;39.20;100882.25;5103225;27;45302;-78
2022/08/29 11:08:07;;;;;;;;;8.50;8.50;;;;;25.57;38.93;100895.94;5094597;27;47914;-79
2022/08/29 11:10:39;;;;;;;;;5.25;5.25;;;;;25.63;38.83;100894.50;5127911;27;45263;-79
2022/08/29 11:13:16;;;;;;;;;8.25;8.25;;;;;25.67;38.73;100893.19;5125753;27;45195;-80
2022/08/29 11:15:51;;;;;;;;;13.00;13.00;;;;;25.75;38.89;100889.72;5126853;27;45403;-78
2022/08/29 11:18:25;;;;;;;;;7.75;7.75;;;;;25.96;38.72;100902.88;5121833;27;45581;-78
2022/08/29 11:20:56;;;;;;;;;9.75;9.00;;;;;26.00;38.62;100892.66;5124714;27;45349;-79
2022/08/29 11:23:37;;;;;;;;;5.00;5.00;;;;;26.03;38.67;100893.16;5118066;27;45397;-79
2022/08/29 11:26:10;;;;;;;;;7.50;7.50;;;;;26.18;38.61;100892.63;5117482;27;45400;-79
2022/08/29 11:28:56;;;;;;;;;10.25;10.25;;;;;26.25;38.06;100891.00;5116430;27;45547;-78
2022/08/29 11:31:42;;;;;;;;;7.00;7.00;;;;;26.33;38.21;100882.97;5117602;27;45326;-80
2022/08/29 11:34:22;;;;;;;;;7.25;7.25;;;;;26.40;37.95;100885.91;5118708;27;45440;-80
2022/08/29 11:37:08;;;;;;;;;7.50;7.50;;;;;26.34;38.04;100873.88;5117746;27;45463;-79
2022/08/29 11:39:45;;;;;;;;;5.50;5.50;;;;;26.37;38.35;100881.66;5116222;27;46411;-79
2022/08/29 11:42:15;;;;;;;;;9.75;9.75;;;;;26.42;37.94;100877.63;5117406;27;45360;-80